ENST/SSJ METAR and TAF weather

Enter ICAO airport designator
Station Type Date Time Source
ENST METAR 2023/01/29 19:20 UTC NOAA

ENST 291920Z 18014KT 9999 VCSH FEW012 SCT030 04/02 Q0970 RMK WIND 300FT 18016KT


Station Type Date Time Source
ENST Decoded METAR 2023/01/29 19:20 UTC NOAA

Sandnessjoen / Stokka, Norway (ENST) 65-58N 012-28E 17M
Jan 29, 2023 - 02:20 PM EST / 2023.01.29 1920 UTC
Wind: from the S (180 degrees) at 16 MPH (14 KT):0
Visibility: greater than 7 mile(s):0
Sky conditions: partly cloudy
Weather: showers in the vicinity
Temperature: 39 F (4 C)
Dew Point: 35 F (2 C)
Relative Humidity: 86%
Pressure (altimeter): 28.64 in. Hg (0970 hPa)
ob: ENST 291920Z 18014KT 9999 VCSH FEW012 SCT030 04/02 Q0970 RMK WIND 300FT 18016KT
cycle: 19

Station Type Date Time Source
ENST TAF UTC NOAA

Error!

Example: see airport list